Bookmark and Share
Track history (hours):
 

M/V Bugra Tomba

Last reported at 2014-Apr-08 18:05 UTC. Time now 2014-Apr-18 03:05 UTC.
Position N 32°53' E 034°55'.
Warning: this ship's position is 9 days out of date.

Length 88 m; draft 6 m.

Type: Ship. MMSI: 271000025.

NotesDate/timePositionNaut miles runAvg speedWind from/ knotsBaromVisibWave heightAir tempDewpointWater temp
2014-Apr-08 18:05N 32°53' E 034°55'5 8.5
2014-Apr-08 17:33N 32°54' E 034°50'8 8.5
2014-Apr-08 16:33N 32°56' E 034°40'9 8.6
2014-Apr-08 15:33N 32°57' E 034°30'9 9.1
2014-Apr-08 14:33N 32°59' E 034°19'18 8.9
2014-Apr-08 12:33N 33°06' E 033°59'64 8.8
2014-Apr-08 05:22N 33°43' E 032°57'8 8.7
2014-Apr-08 04:24N 33°47' E 032°49'8 8.4
2014-Apr-08 03:28N 33°52' E 032°41'8 8.3
2014-Apr-08 02:30N 33°57' E 032°33'11 8.4
2014-Apr-08 01:14N 34°03' E 032°23'335 8.0
2014-Apr-06 07:22N 37°20' E 026°50'7 8.4
2014-Apr-06 06:29N 37°26' E 026°45'16 8.3
2014-Apr-06 04:33N 37°40' E 026°34'159 7.2
2014-Apr-05 06:28N 40°19' E 026°36'113 7.1
2014-Apr-04 14:33N 40°57' E 028°56'9 8.9
2014-Apr-04 13:33N 40°51' E 029°04'9 9.1
2014-Apr-04 12:34N 40°47' E 029°15'9 8.5
2014-Apr-04 11:27N 40°45' E 029°27'  

Dump ship's entire track history

sailing weather and tide predictions

M/V Bugra Tomba — TCEJ — position and weather